CheckWX is a tool to help pilots better visualize weather data.  It is not intended as a substitute for an official pre-flight weather briefing.

09:26:24 UTC

UTAV TAF
Turkmenabat Airport
Türkmenabat, Turkmenistan
TAF UTAV 200430Z 2005/2106 28012G22KT 5000 BKN020 SCT030CB 530003 TEMPO 2005/2012 34016G26KT 3000 -RASN OVC007

Feb-20@
05:00 UTC

Feb-20 @ 05:00 UTC

Feb-21@
06:00 UTC

Feb-21 @ 06:00 UTC

TAF UTAV 200430Z 2005/2106 28012G22KT 5000 BKN020 SCT030CB 530003
Wind
  • 280° at 12 KTS
  • {Gusting to 22 KTS
Visibility
5,005 meters
Cloud Levels
  • Broken at 2,000' AGL
  • Scattered at 3,000' AGL
Turbulence
< Frequent moderate clear air turbulence expected at the surface extending to 3,000' AGL

Feb-20@
05:00 UTC

Feb-20 @ 05:00 UTC

Feb-20@
12:00 UTC

Feb-20 @ 12:00 UTC

TEMPO 2005/2012 34016G26KT 3000 -RASN OVC007

Temporary

TemporaryChanges expected for less than half the time period

Wind
  • 340° at 16 KTS
  • {Gusting to 26 KTS
Visibility
2,993 meters
Conditions
Light Rain, Light Snow
Cloud Levels
  • Overcast at 700' AGL